sensor_id;sensor_type;location;lat;lon;timestamp;temperature;humidity
1800;DHT22;919;48.274;12.292;2023-07-20T00:00:40;18.60;99.90
1800;DHT22;919;48.274;12.292;2023-07-20T00:03:11;18.70;99.90
1800;DHT22;919;48.274;12.292;2023-07-20T00:05:43;18.80;99.90
1800;DHT22;919;48.274;12.292;2023-07-20T00:08:10;18.90;99.90
1800;DHT22;919;48.274;12.292;2023-07-20T00:10:36;19.00;99.90
1800;DHT22;919;48.274;12.292;2023-07-20T00:13:03;19.00;99.90
1800;DHT22;919;48.274;12.292;2023-07-20T00:15:30;19.00;99.90
1800;DHT22;919;48.274;12.292;2023-07-20T00:17:57;18.90;99.90
1800;DHT22;919;48.274;12.292;2023-07-20T00:20:24;19.00;99.90
1800;DHT22;919;48.274;12.292;2023-07-20T00:22:52;18.90;99.90
1800;DHT22;919;48.274;12.292;2023-07-20T00:25:20;18.90;99.90
1800;DHT22;919;48.274;12.292;2023-07-20T00:27:47;18.80;99.90
1800;DHT22;919;48.274;12.292;2023-07-20T00:30:14;18.60;99.90
1800;DHT22;919;48.274;12.292;2023-07-20T00:32:42;18.40;99.90
1800;DHT22;919;48.274;12.292;2023-07-20T00:35:09;18.50;99.90
1800;DHT22;919;48.274;12.292;2023-07-20T00:37:36;18.60;99.90
1800;DHT22;919;48.274;12.292;2023-07-20T00:40:05;18.70;99.90
1800;DHT22;919;48.274;12.292;2023-07-20T00:42:33;18.60;99.90
1800;DHT22;919;48.274;12.292;2023-07-20T00:45:00;18.70;99.90
1800;DHT22;919;48.274;12.292;2023-07-20T00:47:27;18.80;99.90
1800;DHT22;919;48.274;12.292;2023-07-20T00:49:54;18.90;99.90
1800;DHT22;919;48.274;12.292;2023-07-20T00:52:21;19.00;99.90
1800;DHT22;919;48.274;12.292;2023-07-20T00:54:50;19.00;99.90
1800;DHT22;919;48.274;12.292;2023-07-20T00:57:18;19.10;99.90
1800;DHT22;919;48.274;12.292;2023-07-20T00:59:45;19.10;99.90
1800;DHT22;919;48.274;12.292;2023-07-20T01:02:12;19.20;99.90
1800;DHT22;919;48.274;12.292;2023-07-20T01:04:39;19.20;99.90
1800;DHT22;919;48.274;12.292;2023-07-20T01:07:12;19.20;99.90
1800;DHT22;919;48.274;12.292;2023-07-20T01:09:44;19.10;99.90
1800;DHT22;919;48.274;12.292;2023-07-20T01:12:13;19.10;99.90
1800;DHT22;919;48.274;12.292;2023-07-20T01:14:45;19.00;99.90
1800;DHT22;919;48.274;12.292;2023-07-20T01:17:12;18.90;99.90
1800;DHT22;919;48.274;12.292;2023-07-20T01:19:39;18.90;99.90
1800;DHT22;919;48.274;12.292;2023-07-20T01:22:15;18.90;99.90
1800;DHT22;919;48.274;12.292;2023-07-20T01:25:18;18.90;99.90
1800;DHT22;919;48.274;12.292;2023-07-20T01:31:12;18.80;99.90
1800;DHT22;919;48.274;12.292;2023-07-20T01:33:41;18.80;99.90
1800;DHT22;919;48.274;12.292;2023-07-20T01:36:08;18.80;99.90
1800;DHT22;919;48.274;12.292;2023-07-20T01:38:37;18.80;99.90
1800;DHT22;919;48.274;12.292;2023-07-20T01:41:04;18.90;99.90
1800;DHT22;919;48.274;12.292;2023-07-20T01:43:31;18.90;99.90
1800;DHT22;919;48.274;12.292;2023-07-20T01:45:58;18.90;99.90
1800;DHT22;919;48.274;12.292;2023-07-20T01:48:26;18.80;99.90
1800;DHT22;919;48.274;12.292;2023-07-20T01:50:53;18.90;99.90
1800;DHT22;919;48.274;12.292;2023-07-20T01:53:20;18.90;99.90
1800;DHT22;919;48.274;12.292;2023-07-20T01:55:47;18.90;99.90
1800;DHT22;919;48.274;12.292;2023-07-20T01:58:14;18.90;99.90
1800;DHT22;919;48.274;12.292;2023-07-20T02:00:41;18.90;99.90
1800;DHT22;919;48.274;12.292;2023-07-20T02:03:07;19.00;99.90
1800;DHT22;919;48.274;12.292;2023-07-20T02:05:35;18.90;99.90
1800;DHT22;919;48.274;12.292;2023-07-20T02:08:02;18.90;99.90
1800;DHT22;919;48.274;12.292;2023-07-20T02:10:29;18.90;99.90
1800;DHT22;919;48.274;12.292;2023-07-20T02:12:56;19.00;99.90
1800;DHT22;919;48.274;12.292;2023-07-20T02:15:22;19.00;99.90
1800;DHT22;919;48.274;12.292;2023-07-20T02:17:49;19.00;99.90
1800;DHT22;919;48.274;12.292;2023-07-20T02:20:16;19.00;99.90
1800;DHT22;919;48.274;12.292;2023-07-20T02:22:44;19.00;99.90
1800;DHT22;919;48.274;12.292;2023-07-20T02:25:11;19.00;99.90
1800;DHT22;919;48.274;12.292;2023-07-20T02:27:38;19.00;99.90
1800;DHT22;919;48.274;12.292;2023-07-20T02:30:06;19.00;99.90
1800;DHT22;919;48.274;12.292;2023-07-20T02:32:34;19.00;99.90
1800;DHT22;919;48.274;12.292;2023-07-20T02:35:01;19.00;99.90
1800;DHT22;919;48.274;12.292;2023-07-20T02:37:29;19.00;99.90
1800;DHT22;919;48.274;12.292;2023-07-20T02:39:57;18.90;99.90
1800;DHT22;919;48.274;12.292;2023-07-20T02:42:24;19.00;99.90
1800;DHT22;919;48.274;12.292;2023-07-20T02:44:51;19.00;99.90
1800;DHT22;919;48.274;12.292;2023-07-20T02:47:18;19.10;99.90
1800;DHT22;919;48.274;12.292;2023-07-20T02:49:45;19.10;99.90
1800;DHT22;919;48.274;12.292;2023-07-20T02:52:11;19.10;99.90
1800;DHT22;919;48.274;12.292;2023-07-20T02:54:38;19.10;99.90
1800;DHT22;919;48.274;12.292;2023-07-20T02:57:06;19.10;99.90
1800;DHT22;919;48.274;12.292;2023-07-20T02:59:33;19.10;99.90
1800;DHT22;919;48.274;12.292;2023-07-20T03:02:00;19.10;99.90
1800;DHT22;919;48.274;12.292;2023-07-20T03:04:27;19.10;99.90
1800;DHT22;919;48.274;12.292;2023-07-20T03:06:53;19.10;99.90
1800;DHT22;919;48.274;12.292;2023-07-20T03:09:20;19.10;99.90
1800;DHT22;919;48.274;12.292;2023-07-20T03:11:47;19.10;99.90
1800;DHT22;919;48.274;12.292;2023-07-20T03:14:15;19.10;99.90
1800;DHT22;919;48.274;12.292;2023-07-20T03:16:42;19.00;99.90
1800;DHT22;919;48.274;12.292;2023-07-20T03:19:09;18.90;99.90
1800;DHT22;919;48.274;12.292;2023-07-20T03:21:36;18.90;99.90
1800;DHT22;919;48.274;12.292;2023-07-20T03:24:06;18.80;99.90
1800;DHT22;919;48.274;12.292;2023-07-20T03:26:33;18.70;99.90
1800;DHT22;919;48.274;12.292;2023-07-20T03:29:00;18.70;99.90
1800;DHT22;919;48.274;12.292;2023-07-20T03:31:28;18.80;99.90
1800;DHT22;919;48.274;12.292;2023-07-20T03:33:55;18.80;99.90
1800;DHT22;919;48.274;12.292;2023-07-20T03:36:21;18.90;99.90
1800;DHT22;919;48.274;12.292;2023-07-20T03:38:48;18.90;99.90
1800;DHT22;919;48.274;12.292;2023-07-20T03:41:15;18.90;99.90
1800;DHT22;919;48.274;12.292;2023-07-20T03:43:42;18.80;99.90
1800;DHT22;919;48.274;12.292;2023-07-20T03:46:09;18.80;99.90
1800;DHT22;919;48.274;12.292;2023-07-20T03:48:37;18.70;99.90
1800;DHT22;919;48.274;12.292;2023-07-20T03:51:04;18.70;99.90
1800;DHT22;919;48.274;12.292;2023-07-20T03:53:30;18.70;99.90
1800;DHT22;919;48.274;12.292;2023-07-20T03:55:57;18.70;99.90
1800;DHT22;919;48.274;12.292;2023-07-20T03:58:24;18.70;99.90
1800;DHT22;919;48.274;12.292;2023-07-20T04:00:51;18.70;99.90
1800;DHT22;919;48.274;12.292;2023-07-20T04:03:18;18.60;99.90
1800;DHT22;919;48.274;12.292;2023-07-20T04:05:46;18.60;99.90
1800;DHT22;919;48.274;12.292;2023-07-20T04:08:13;18.60;99.90
1800;DHT22;919;48.274;12.292;2023-07-20T04:10:43;18.60;99.90
1800;DHT22;919;48.274;12.292;2023-07-20T04:13:10;18.70;99.90
1800;DHT22;919;48.274;12.292;2023-07-20T04:15:36;18.70;99.90
1800;DHT22;919;48.274;12.292;2023-07-20T04:18:03;18.70;99.90
1800;DHT22;919;48.274;12.292;2023-07-20T04:20:30;18.80;99.90
1800;DHT22;919;48.274;12.292;2023-07-20T04:22:58;18.80;99.90
1800;DHT22;919;48.274;12.292;2023-07-20T04:25:25;18.90;99.90
1800;DHT22;919;48.274;12.292;2023-07-20T04:27:51;18.90;99.90
1800;DHT22;919;48.274;12.292;2023-07-20T04:30:19;18.90;99.90
1800;DHT22;919;48.274;12.292;2023-07-20T04:32:47;18.90;99.90
1800;DHT22;919;48.274;12.292;2023-07-20T04:35:17;18.80;99.90
1800;DHT22;919;48.274;12.292;2023-07-20T04:37:44;18.90;99.90
1800;DHT22;919;48.274;12.292;2023-07-20T04:40:15;19.00;99.90
1800;DHT22;919;48.274;12.292;2023-07-20T04:42:42;19.00;99.90
1800;DHT22;919;48.274;12.292;2023-07-20T04:45:09;19.00;99.90
1800;DHT22;919;48.274;12.292;2023-07-20T04:47:36;19.00;99.90
1800;DHT22;919;48.274;12.292;2023-07-20T04:50:03;19.10;99.90
1800;DHT22;919;48.274;12.292;2023-07-20T04:52:29;19.10;99.90
1800;DHT22;919;48.274;12.292;2023-07-20T04:54:56;19.10;99.90
1800;DHT22;919;48.274;12.292;2023-07-20T04:57:24;19.10;99.90
1800;DHT22;919;48.274;12.292;2023-07-20T04:59:52;19.10;99.90
1800;DHT22;919;48.274;12.292;2023-07-20T05:02:18;19.20;99.90
1800;DHT22;919;48.274;12.292;2023-07-20T05:04:46;19.20;99.90
1800;DHT22;919;48.274;12.292;2023-07-20T05:07:12;19.20;99.90
1800;DHT22;919;48.274;12.292;2023-07-20T05:09:39;19.30;99.90
1800;DHT22;919;48.274;12.292;2023-07-20T05:12:06;19.20;99.90
1800;DHT22;919;48.274;12.292;2023-07-20T05:14:34;19.20;99.90
1800;DHT22;919;48.274;12.292;2023-07-20T05:17:01;19.30;99.90
1800;DHT22;919;48.274;12.292;2023-07-20T05:19:28;19.30;99.90
1800;DHT22;919;48.274;12.292;2023-07-20T05:21:55;19.30;99.90
1800;DHT22;919;48.274;12.292;2023-07-20T05:24:21;19.30;99.90
1800;DHT22;919;48.274;12.292;2023-07-20T05:26:48;19.30;99.90
1800;DHT22;919;48.274;12.292;2023-07-20T05:29:15;19.20;99.90
1800;DHT22;919;48.274;12.292;2023-07-20T05:31:43;19.30;99.90
1800;DHT22;919;48.274;12.292;2023-07-20T05:34:10;19.30;99.90
1800;DHT22;919;48.274;12.292;2023-07-20T05:36:37;19.40;99.90
1800;DHT22;919;48.274;12.292;2023-07-20T05:39:03;19.40;99.90
1800;DHT22;919;48.274;12.292;2023-07-20T05:41:30;19.50;99.90
1800;DHT22;919;48.274;12.292;2023-07-20T05:43:57;19.50;99.90
1800;DHT22;919;48.274;12.292;2023-07-20T05:46:24;19.50;99.90
1800;DHT22;919;48.274;12.292;2023-07-20T05:48:52;19.50;99.90
1800;DHT22;919;48.274;12.292;2023-07-20T05:51:19;19.50;99.90
1800;DHT22;919;48.274;12.292;2023-07-20T05:53:45;19.50;99.90
1800;DHT22;919;48.274;12.292;2023-07-20T05:56:13;19.50;99.90
1800;DHT22;919;48.274;12.292;2023-07-20T05:58:40;19.50;99.90
1800;DHT22;919;48.274;12.292;2023-07-20T06:01:07;19.50;99.90
1800;DHT22;919;48.274;12.292;2023-07-20T06:03:34;19.50;99.90
1800;DHT22;919;48.274;12.292;2023-07-20T06:06:02;19.60;99.90
1800;DHT22;919;48.274;12.292;2023-07-20T06:08:29;19.60;99.90
1800;DHT22;919;48.274;12.292;2023-07-20T06:10:56;19.70;99.90
1800;DHT22;919;48.274;12.292;2023-07-20T06:13:23;19.60;99.90
1800;DHT22;919;48.274;12.292;2023-07-20T06:15:50;19.60;99.90
1800;DHT22;919;48.274;12.292;2023-07-20T06:18:17;19.60;99.90
1800;DHT22;919;48.274;12.292;2023-07-20T06:20:49;19.60;99.90
1800;DHT22;919;48.274;12.292;2023-07-20T06:23:17;19.70;99.90
1800;DHT22;919;48.274;12.292;2023-07-20T06:25:44;19.70;99.90
1800;DHT22;919;48.274;12.292;2023-07-20T06:28:11;19.80;99.90
1800;DHT22;919;48.274;12.292;2023-07-20T06:30:38;19.90;99.90
1800;DHT22;919;48.274;12.292;2023-07-20T06:33:05;20.00;99.90
1800;DHT22;919;48.274;12.292;2023-07-20T06:35:32;20.20;99.90
1800;DHT22;919;48.274;12.292;2023-07-20T06:37:58;20.30;99.90
1800;DHT22;919;48.274;12.292;2023-07-20T06:40:27;20.50;99.90
1800;DHT22;919;48.274;12.292;2023-07-20T06:42:54;20.50;99.90
1800;DHT22;919;48.274;12.292;2023-07-20T06:45:20;20.60;99.90
1800;DHT22;919;48.274;12.292;2023-07-20T06:47:47;20.60;99.90
1800;DHT22;919;48.274;12.292;2023-07-20T06:50:14;20.50;99.90
1800;DHT22;919;48.274;12.292;2023-07-20T06:52:41;20.50;99.90
1800;DHT22;919;48.274;12.292;2023-07-20T06:55:08;20.60;99.90
1800;DHT22;919;48.274;12.292;2023-07-20T06:57:36;20.60;99.90
1800;DHT22;919;48.274;12.292;2023-07-20T07:00:04;20.60;99.90
1800;DHT22;919;48.274;12.292;2023-07-20T07:02:32;20.80;99.90
1800;DHT22;919;48.274;12.292;2023-07-20T07:04:59;21.00;99.90
1800;DHT22;919;48.274;12.292;2023-07-20T07:07:26;21.10;99.90
1800;DHT22;919;48.274;12.292;2023-07-20T07:09:53;21.20;99.90
1800;DHT22;919;48.274;12.292;2023-07-20T07:12:20;21.10;99.90
1800;DHT22;919;48.274;12.292;2023-07-20T07:14:48;21.10;99.90
1800;DHT22;919;48.274;12.292;2023-07-20T07:17:15;21.30;99.90
1800;DHT22;919;48.274;12.292;2023-07-20T07:19:42;21.40;99.90
1800;DHT22;919;48.274;12.292;2023-07-20T07:22:09;21.60;99.90
1800;DHT22;919;48.274;12.292;2023-07-20T07:24:37;21.50;99.90
1800;DHT22;919;48.274;12.292;2023-07-20T07:27:04;21.60;99.90
1800;DHT22;919;48.274;12.292;2023-07-20T07:29:31;21.60;99.90
1800;DHT22;919;48.274;12.292;2023-07-20T07:31:59;21.50;99.90
1800;DHT22;919;48.274;12.292;2023-07-20T07:34:27;21.50;99.90
1800;DHT22;919;48.274;12.292;2023-07-20T07:36:53;21.50;99.90
1800;DHT22;919;48.274;12.292;2023-07-20T07:39:21;21.40;99.90
1800;DHT22;919;48.274;12.292;2023-07-20T07:41:49;21.60;99.90
1800;DHT22;919;48.274;12.292;2023-07-20T07:44:17;21.80;99.90
1800;DHT22;919;48.274;12.292;2023-07-20T07:46:44;22.00;99.90
1800;DHT22;919;48.274;12.292;2023-07-20T07:49:12;22.30;99.90
1800;DHT22;919;48.274;12.292;2023-07-20T07:51:39;22.50;99.90
1800;DHT22;919;48.274;12.292;2023-07-20T07:54:05;22.60;99.90
1800;DHT22;919;48.274;12.292;2023-07-20T07:56:32;22.50;99.90
1800;DHT22;919;48.274;12.292;2023-07-20T07:58:59;22.60;99.90
1800;DHT22;919;48.274;12.292;2023-07-20T08:01:26;22.50;99.90
1800;DHT22;919;48.274;12.292;2023-07-20T08:03:53;22.60;99.90
1800;DHT22;919;48.274;12.292;2023-07-20T08:06:21;22.60;99.90
1800;DHT22;919;48.274;12.292;2023-07-20T08:08:49;22.70;99.90
1800;DHT22;919;48.274;12.292;2023-07-20T08:11:16;22.80;99.90
1800;DHT22;919;48.274;12.292;2023-07-20T08:13:43;22.90;99.90
1800;DHT22;919;48.274;12.292;2023-07-20T08:16:10;23.10;99.90
1800;DHT22;919;48.274;12.292;2023-07-20T08:18:37;23.10;99.90
1800;DHT22;919;48.274;12.292;2023-07-20T08:21:03;23.30;99.90
1800;DHT22;919;48.274;12.292;2023-07-20T08:23:31;23.10;99.90
1800;DHT22;919;48.274;12.292;2023-07-20T08:25:58;23.20;99.90
1800;DHT22;919;48.274;12.292;2023-07-20T08:28:26;23.30;99.90
1800;DHT22;919;48.274;12.292;2023-07-20T08:30:54;23.40;99.90
1800;DHT22;919;48.274;12.292;2023-07-20T08:33:21;23.40;99.90
1800;DHT22;919;48.274;12.292;2023-07-20T08:35:49;23.40;99.90
1800;DHT22;919;48.274;12.292;2023-07-20T08:38:15;23.30;99.90
1800;DHT22;919;48.274;12.292;2023-07-20T08:40:45;23.30;99.90
1800;DHT22;919;48.274;12.292;2023-07-20T08:43:14;23.20;99.90
1800;DHT22;919;48.274;12.292;2023-07-20T08:45:44;23.20;99.90
1800;DHT22;919;48.274;12.292;2023-07-20T08:48:12;23.20;99.90
1800;DHT22;919;48.274;12.292;2023-07-20T08:50:39;23.20;99.90
1800;DHT22;919;48.274;12.292;2023-07-20T08:53:07;22.90;99.90
1800;DHT22;919;48.274;12.292;2023-07-20T08:55:35;23.00;99.90
1800;DHT22;919;48.274;12.292;2023-07-20T08:58:05;23.30;99.90
1800;DHT22;919;48.274;12.292;2023-07-20T09:00:35;23.40;99.90
1800;DHT22;919;48.274;12.292;2023-07-20T09:03:02;23.60;99.90
1800;DHT22;919;48.274;12.292;2023-07-20T09:05:30;23.80;99.90
1800;DHT22;919;48.274;12.292;2023-07-20T09:07:56;23.90;99.90
1800;DHT22;919;48.274;12.292;2023-07-20T09:10:24;23.70;99.90
1800;DHT22;919;48.274;12.292;2023-07-20T09:12:51;23.30;99.90
1800;DHT22;919;48.274;12.292;2023-07-20T09:15:20;23.40;99.90
1800;DHT22;919;48.274;12.292;2023-07-20T09:17:47;23.30;99.90
1800;DHT22;919;48.274;12.292;2023-07-20T09:20:15;23.50;99.90
1800;DHT22;919;48.274;12.292;2023-07-20T09:22:42;23.40;99.90
1800;DHT22;919;48.274;12.292;2023-07-20T09:25:12;23.50;99.90
1800;DHT22;919;48.274;12.292;2023-07-20T09:27:41;23.60;99.90
1800;DHT22;919;48.274;12.292;2023-07-20T09:30:09;24.00;99.90
1800;DHT22;919;48.274;12.292;2023-07-20T09:32:41;24.30;99.90
1800;DHT22;919;48.274;12.292;2023-07-20T09:35:13;24.10;99.90
1800;DHT22;919;48.274;12.292;2023-07-20T09:37:46;24.00;99.90
1800;DHT22;919;48.274;12.292;2023-07-20T09:40:15;24.00;99.90
1800;DHT22;919;48.274;12.292;2023-07-20T09:42:43;24.00;99.90
1800;DHT22;919;48.274;12.292;2023-07-20T09:45:10;24.10;99.90
1800;DHT22;919;48.274;12.292;2023-07-20T09:47:39;24.20;99.90
1800;DHT22;919;48.274;12.292;2023-07-20T09:50:07;24.00;99.90
1800;DHT22;919;48.274;12.292;2023-07-20T09:52:38;23.90;99.90
1800;DHT22;919;48.274;12.292;2023-07-20T09:55:09;24.00;99.90
1800;DHT22;919;48.274;12.292;2023-07-20T09:57:37;24.30;99.90
1800;DHT22;919;48.274;12.292;2023-07-20T10:00:07;24.30;99.90
1800;DHT22;919;48.274;12.292;2023-07-20T10:02:45;24.60;99.90
1800;DHT22;919;48.274;12.292;2023-07-20T10:05:13;24.60;99.90
1800;DHT22;919;48.274;12.292;2023-07-20T10:07:47;24.50;99.90
1800;DHT22;919;48.274;12.292;2023-07-20T10:10:16;24.60;99.90
1800;DHT22;919;48.274;12.292;2023-07-20T10:12:46;24.60;99.90
1800;DHT22;919;48.274;12.292;2023-07-20T10:15:19;24.50;99.90
1800;DHT22;919;48.274;12.292;2023-07-20T10:17:57;24.70;99.90
1800;DHT22;919;48.274;12.292;2023-07-20T10:20:25;25.00;99.90
1800;DHT22;919;48.274;12.292;2023-07-20T10:22:57;25.10;99.90
1800;DHT22;919;48.274;12.292;2023-07-20T10:25:24;25.40;99.90
1800;DHT22;919;48.274;12.292;2023-07-20T10:27:51;25.80;99.90
1800;DHT22;919;48.274;12.292;2023-07-20T10:30:19;25.90;99.90
1800;DHT22;919;48.274;12.292;2023-07-20T10:32:49;25.80;99.90
1800;DHT22;919;48.274;12.292;2023-07-20T10:35:17;25.80;99.90
1800;DHT22;919;48.274;12.292;2023-07-20T10:37:50;25.90;99.90
1800;DHT22;919;48.274;12.292;2023-07-20T10:40:31;25.90;99.90
1800;DHT22;919;48.274;12.292;2023-07-20T10:43:03;25.90;99.90
1800;DHT22;919;48.274;12.292;2023-07-20T10:45:36;25.90;99.90
1800;DHT22;919;48.274;12.292;2023-07-20T10:48:13;26.10;99.90
1800;DHT22;919;48.274;12.292;2023-07-20T10:50:43;26.30;99.90
1800;DHT22;919;48.274;12.292;2023-07-20T10:53:16;26.20;99.90
1800;DHT22;919;48.274;12.292;2023-07-20T10:55:44;26.20;99.90
1800;DHT22;919;48.274;12.292;2023-07-20T10:58:13;26.10;99.90
1800;DHT22;919;48.274;12.292;2023-07-20T11:01:01;26.10;99.90
1800;DHT22;919;48.274;12.292;2023-07-20T11:03:31;26.30;99.90
1800;DHT22;919;48.274;12.292;2023-07-20T11:05:59;26.30;99.90
1800;DHT22;919;48.274;12.292;2023-07-20T11:08:47;25.90;99.90
1800;DHT22;919;48.274;12.292;2023-07-20T11:11:24;26.00;99.90
1800;DHT22;919;48.274;12.292;2023-07-20T11:13:56;26.20;99.90
1800;DHT22;919;48.274;12.292;2023-07-20T11:16:34;26.30;99.90
1800;DHT22;919;48.274;12.292;2023-07-20T11:19:03;26.00;99.90
1800;DHT22;919;48.274;12.292;2023-07-20T11:21:36;25.90;99.90
1800;DHT22;919;48.274;12.292;2023-07-20T11:24:05;26.00;99.90
1800;DHT22;919;48.274;12.292;2023-07-20T11:26:43;26.30;99.90
1800;DHT22;919;48.274;12.292;2023-07-20T11:29:11;26.70;99.90
1800;DHT22;919;48.274;12.292;2023-07-20T11:31:41;26.90;99.90
1800;DHT22;919;48.274;12.292;2023-07-20T11:34:12;26.80;99.90
1800;DHT22;919;48.274;12.292;2023-07-20T11:36:41;26.70;99.90
1800;DHT22;919;48.274;12.292;2023-07-20T11:39:09;26.80;99.90
1800;DHT22;919;48.274;12.292;2023-07-20T11:41:36;27.10;99.90
1800;DHT22;919;48.274;12.292;2023-07-20T11:44:05;27.30;99.90
1800;DHT22;919;48.274;12.292;2023-07-20T11:46:33;27.20;99.90
1800;DHT22;919;48.274;12.292;2023-07-20T11:49:00;26.80;99.90
1800;DHT22;919;48.274;12.292;2023-07-20T11:51:30;26.80;99.90
1800;DHT22;919;48.274;12.292;2023-07-20T11:53:58;26.90;99.90
1800;DHT22;919;48.274;12.292;2023-07-20T11:56:26;26.70;99.90
1800;DHT22;919;48.274;12.292;2023-07-20T11:58:58;26.60;99.90
1800;DHT22;919;48.274;12.292;2023-07-20T12:01:27;26.60;99.90
1800;DHT22;919;48.274;12.292;2023-07-20T12:03:55;26.80;99.90
1800;DHT22;919;48.274;12.292;2023-07-20T12:06:23;26.80;99.90
1800;DHT22;919;48.274;12.292;2023-07-20T12:08:56;26.80;99.90
1800;DHT22;919;48.274;12.292;2023-07-20T12:11:33;27.10;99.90
1800;DHT22;919;48.274;12.292;2023-07-20T12:14:01;27.40;99.90
1800;DHT22;919;48.274;12.292;2023-07-20T12:16:29;27.30;99.90
1800;DHT22;919;48.274;12.292;2023-07-20T12:19:01;27.60;99.90
1800;DHT22;919;48.274;12.292;2023-07-20T12:21:28;27.80;99.90
1800;DHT22;919;48.274;12.292;2023-07-20T12:23:58;28.10;99.90
1800;DHT22;919;48.274;12.292;2023-07-20T12:26:25;28.00;99.90
1800;DHT22;919;48.274;12.292;2023-07-20T12:28:53;28.30;99.90
1800;DHT22;919;48.274;12.292;2023-07-20T12:31:20;28.20;99.90
1800;DHT22;919;48.274;12.292;2023-07-20T12:33:48;28.30;99.90
1800;DHT22;919;48.274;12.292;2023-07-20T12:36:15;28.30;99.90
1800;DHT22;919;48.274;12.292;2023-07-20T12:38:43;28.10;99.90
1800;DHT22;919;48.274;12.292;2023-07-20T12:41:13;27.70;99.90
1800;DHT22;919;48.274;12.292;2023-07-20T12:43:40;27.50;99.90
1800;DHT22;919;48.274;12.292;2023-07-20T12:46:08;27.50;99.90
1800;DHT22;919;48.274;12.292;2023-07-20T12:48:36;27.60;99.90
1800;DHT22;919;48.274;12.292;2023-07-20T12:51:03;27.70;99.90
1800;DHT22;919;48.274;12.292;2023-07-20T12:53:32;27.80;99.90
1800;DHT22;919;48.274;12.292;2023-07-20T12:56:01;27.80;99.90
1800;DHT22;919;48.274;12.292;2023-07-20T12:58:29;27.70;99.90
1800;DHT22;919;48.274;12.292;2023-07-20T13:00:56;27.60;99.90
1800;DHT22;919;48.274;12.292;2023-07-20T13:03:24;27.70;99.90
1800;DHT22;919;48.274;12.292;2023-07-20T13:05:52;27.90;99.90
1800;DHT22;919;48.274;12.292;2023-07-20T13:08:19;27.90;99.90
1800;DHT22;919;48.274;12.292;2023-07-20T13:10:46;27.80;99.90
1800;DHT22;919;48.274;12.292;2023-07-20T13:13:23;27.90;99.90
1800;DHT22;919;48.274;12.292;2023-07-20T13:15:51;28.00;99.90
1800;DHT22;919;48.274;12.292;2023-07-20T13:18:23;28.10;99.90
1800;DHT22;919;48.274;12.292;2023-07-20T13:20:50;27.90;99.90
1800;DHT22;919;48.274;12.292;2023-07-20T13:23:17;27.30;99.90
1800;DHT22;919;48.274;12.292;2023-07-20T13:25:45;26.80;99.90
1800;DHT22;919;48.274;12.292;2023-07-20T13:28:12;26.80;99.90
1800;DHT22;919;48.274;12.292;2023-07-20T13:30:39;26.70;99.90
1800;DHT22;919;48.274;12.292;2023-07-20T13:33:10;26.70;99.90
1800;DHT22;919;48.274;12.292;2023-07-20T13:35:44;26.80;99.90
1800;DHT22;919;48.274;12.292;2023-07-20T13:38:12;26.80;99.90
1800;DHT22;919;48.274;12.292;2023-07-20T13:40:39;27.20;99.90
1800;DHT22;919;48.274;12.292;2023-07-20T13:43:06;27.40;99.90
1800;DHT22;919;48.274;12.292;2023-07-20T13:45:33;27.30;99.90
1800;DHT22;919;48.274;12.292;2023-07-20T13:48:00;27.20;99.90
1800;DHT22;919;48.274;12.292;2023-07-20T13:50:29;27.20;99.90
1800;DHT22;919;48.274;12.292;2023-07-20T13:52:56;27.60;99.90
1800;DHT22;919;48.274;12.292;2023-07-20T13:55:23;28.00;99.90
1800;DHT22;919;48.274;12.292;2023-07-20T13:57:50;28.20;99.90
1800;DHT22;919;48.274;12.292;2023-07-20T14:00:17;28.20;99.90
1800;DHT22;919;48.274;12.292;2023-07-20T14:02:44;28.10;99.90
1800;DHT22;919;48.274;12.292;2023-07-20T14:05:11;28.00;99.90
1800;DHT22;919;48.274;12.292;2023-07-20T14:07:39;28.20;99.90
1800;DHT22;919;48.274;12.292;2023-07-20T14:10:06;28.30;99.90
1800;DHT22;919;48.274;12.292;2023-07-20T14:12:33;28.00;99.90
1800;DHT22;919;48.274;12.292;2023-07-20T14:15:00;27.90;99.90
1800;DHT22;919;48.274;12.292;2023-07-20T14:17:26;27.90;99.90
1800;DHT22;919;48.274;12.292;2023-07-20T14:19:53;28.00;99.90
1800;DHT22;919;48.274;12.292;2023-07-20T14:22:20;28.10;99.90
1800;DHT22;919;48.274;12.292;2023-07-20T14:24:48;28.20;99.90
1800;DHT22;919;48.274;12.292;2023-07-20T14:27:15;28.20;99.90
1800;DHT22;919;48.274;12.292;2023-07-20T14:29:41;28.20;99.90
1800;DHT22;919;48.274;12.292;2023-07-20T14:32:08;27.90;99.90
1800;DHT22;919;48.274;12.292;2023-07-20T14:34:35;27.90;99.90
1800;DHT22;919;48.274;12.292;2023-07-20T14:37:02;27.90;99.90
1800;DHT22;919;48.274;12.292;2023-07-20T14:39:29;28.00;99.90
1800;DHT22;919;48.274;12.292;2023-07-20T14:41:58;28.30;99.90
1800;DHT22;919;48.274;12.292;2023-07-20T14:44:24;28.30;99.90
1800;DHT22;919;48.274;12.292;2023-07-20T14:46:51;28.30;99.90
1800;DHT22;919;48.274;12.292;2023-07-20T14:49:18;28.00;99.90
1800;DHT22;919;48.274;12.292;2023-07-20T14:51:45;27.80;99.90
1800;DHT22;919;48.274;12.292;2023-07-20T14:54:12;28.00;99.90
1800;DHT22;919;48.274;12.292;2023-07-20T14:56:39;28.00;99.90
1800;DHT22;919;48.274;12.292;2023-07-20T14:59:16;28.10;99.90
1800;DHT22;919;48.274;12.292;2023-07-20T15:01:43;28.20;99.90
1800;DHT22;919;48.274;12.292;2023-07-20T15:04:11;28.40;99.90
1800;DHT22;919;48.274;12.292;2023-07-20T15:06:38;28.50;99.90
1800;DHT22;919;48.274;12.292;2023-07-20T15:09:04;28.40;99.90
1800;DHT22;919;48.274;12.292;2023-07-20T15:11:31;28.20;99.90
1800;DHT22;919;48.274;12.292;2023-07-20T15:13:58;28.30;99.90
1800;DHT22;919;48.274;12.292;2023-07-20T15:16:26;28.30;99.90
1800;DHT22;919;48.274;12.292;2023-07-20T15:18:53;28.40;99.90
1800;DHT22;919;48.274;12.292;2023-07-20T15:21:20;28.50;99.90
1800;DHT22;919;48.274;12.292;2023-07-20T15:23:48;28.50;99.90
1800;DHT22;919;48.274;12.292;2023-07-20T15:26:15;28.60;99.90
1800;DHT22;919;48.274;12.292;2023-07-20T15:28:42;28.70;99.90
1800;DHT22;919;48.274;12.292;2023-07-20T15:31:09;28.80;99.90
1800;DHT22;919;48.274;12.292;2023-07-20T15:33:37;28.70;99.90
1800;DHT22;919;48.274;12.292;2023-07-20T15:36:04;28.90;99.90
1800;DHT22;919;48.274;12.292;2023-07-20T15:38:32;29.00;99.90
1800;DHT22;919;48.274;12.292;2023-07-20T15:40:59;28.90;99.90
1800;DHT22;919;48.274;12.292;2023-07-20T15:43:27;28.80;99.90
1800;DHT22;919;48.274;12.292;2023-07-20T15:46:43;28.40;99.90
1800;DHT22;919;48.274;12.292;2023-07-20T15:49:11;28.40;99.90
1800;DHT22;919;48.274;12.292;2023-07-20T15:51:39;28.00;99.90
1800;DHT22;919;48.274;12.292;2023-07-20T15:54:08;27.50;99.90
1800;DHT22;919;48.274;12.292;2023-07-20T15:56:36;27.30;99.90
1800;DHT22;919;48.274;12.292;2023-07-20T15:59:03;27.20;99.90
1800;DHT22;919;48.274;12.292;2023-07-20T16:01:31;27.40;99.90
1800;DHT22;919;48.274;12.292;2023-07-20T16:03:58;27.60;99.90
1800;DHT22;919;48.274;12.292;2023-07-20T16:06:27;27.60;99.90
1800;DHT22;919;48.274;12.292;2023-07-20T16:08:54;27.90;99.90
1800;DHT22;919;48.274;12.292;2023-07-20T16:11:21;28.10;99.90